createdAt,value
2023-05-14T00:02:07.219Z,11.13
2023-05-14T00:07:10.215Z,10.40
2023-05-14T00:12:12.121Z,9.10
2023-05-14T00:17:13.894Z,9.77
2023-05-14T00:22:16.956Z,11.60
2023-05-14T00:27:18.558Z,12.60
2023-05-14T00:32:20.320Z,9.37
2023-05-14T00:37:23.298Z,10.17
2023-05-14T00:42:25.345Z,15.67
2023-05-14T00:47:27.069Z,11.87
2023-05-14T00:52:30.266Z,10.00
2023-05-14T00:57:31.968Z,11.33
2023-05-14T01:02:33.739Z,10.10
2023-05-14T01:07:41.034Z,11.13
2023-05-14T01:12:47.845Z,16.03
2023-05-14T01:17:52.243Z,9.27
2023-05-14T01:22:55.330Z,11.23
2023-05-14T01:28:01.318Z,13.33
2023-05-14T01:33:06.493Z,12.67
2023-05-14T01:38:11.177Z,11.93
2023-05-14T01:43:13.445Z,10.57
2023-05-14T01:48:15.814Z,11.20
2023-05-14T01:53:18.781Z,9.80
2023-05-14T01:58:20.564Z,8.80
2023-05-14T02:03:22.810Z,10.10
2023-05-14T02:08:25.861Z,11.77
2023-05-14T02:13:27.536Z,10.87
2023-05-14T02:18:29.170Z,8.90
2023-05-14T02:23:41.112Z,9.67
2023-05-14T02:28:43.955Z,11.40
2023-05-14T02:33:47.837Z,12.43
2023-05-14T02:38:50.875Z,7.80
2023-05-14T02:43:52.992Z,12.80
2023-05-14T02:48:56.131Z,11.40
2023-05-14T02:53:59.116Z,12.23
2023-05-14T02:59:00.929Z,12.27
2023-05-14T03:04:03.149Z,11.83
2023-05-14T03:09:06.265Z,15.73
2023-05-14T03:14:07.915Z,13.23
2023-05-14T03:19:09.643Z,13.17
2023-05-14T03:24:12.960Z,14.10
2023-05-14T03:29:14.554Z,11.80
2023-05-14T03:34:16.157Z,9.73
2023-05-14T03:39:19.209Z,11.73
2023-05-14T03:44:20.826Z,11.57
2023-05-14T03:49:22.552Z,12.57
2023-05-14T03:54:26.707Z,16.57
2023-05-14T03:59:28.452Z,8.30
2023-05-14T04:04:30.173Z,9.27
2023-05-14T04:09:33.298Z,12.80
2023-05-14T04:14:34.979Z,8.67
2023-05-14T04:19:36.625Z,8.83
2023-05-14T04:24:39.551Z,10.00
2023-05-14T04:29:41.149Z,10.60
2023-05-14T04:34:42.793Z,7.53
2023-05-14T04:39:45.770Z,7.60
2023-05-14T04:44:47.638Z,10.00
2023-05-14T04:49:49.329Z,10.50
2023-05-14T04:54:52.418Z,10.20
2023-05-14T04:59:54.105Z,8.33
2023-05-14T05:04:55.762Z,7.87
2023-05-14T05:09:58.708Z,10.43
2023-05-14T05:15:00.384Z,6.87
2023-05-14T05:20:01.976Z,8.37
2023-05-14T05:25:05.790Z,8.20
2023-05-14T05:30:08.474Z,8.17
2023-05-14T05:35:10.142Z,8.97
2023-05-14T05:40:13.319Z,9.13
2023-05-14T05:45:14.937Z,9.00
2023-05-14T05:50:17.916Z,14.97
2023-05-14T05:55:22.115Z,10.10
2023-05-14T06:00:24.108Z,13.50
2023-05-14T06:05:27.575Z,13.17
2023-05-14T06:10:30.695Z,7.03
2023-05-14T06:15:32.383Z,9.93
2023-05-14T06:20:34.096Z,7.80
2023-05-14T06:25:37.023Z,9.20
2023-05-14T06:30:38.698Z,7.07
2023-05-14T06:35:40.360Z,7.00
2023-05-14T06:40:43.375Z,7.50
2023-05-14T06:45:48.753Z,9.57
2023-05-14T06:50:50.430Z,7.40
2023-05-14T06:55:53.419Z,6.93
2023-05-14T07:00:55.082Z,6.97
2023-05-14T07:05:56.726Z,7.40
2023-05-14T07:10:59.752Z,6.57
2023-05-14T07:16:01.446Z,5.67
2023-05-14T07:21:03.192Z,6.03
2023-05-14T07:26:07.150Z,6.23
2023-05-14T07:31:09.377Z,6.97
2023-05-14T07:36:11.106Z,6.00
2023-05-14T07:41:14.106Z,5.73
2023-05-14T07:46:15.942Z,5.10
2023-05-14T07:51:17.664Z,5.30
2023-05-14T07:56:20.710Z,5.93
2023-05-14T08:01:22.864Z,5.57
2023-05-14T08:06:24.765Z,5.87
2023-05-14T08:11:27.990Z,4.90
2023-05-14T08:16:29.736Z,5.10
2023-05-14T08:21:31.381Z,5.77
2023-05-14T08:26:34.404Z,6.00
2023-05-14T08:31:36.108Z,5.20
2023-05-14T08:36:38.466Z,5.30
2023-05-14T08:41:41.540Z,4.20
2023-05-14T08:46:43.188Z,9.27
2023-05-14T08:51:45.086Z,5.50
2023-05-14T08:56:49.874Z,5.47
2023-05-14T09:01:54.267Z,7.63
2023-05-14T09:06:56.043Z,3.90
2023-05-14T09:11:59.011Z,4.40
2023-05-14T09:17:00.578Z,5.23
2023-05-14T09:22:02.363Z,6.30
2023-05-14T09:27:06.257Z,5.57
2023-05-14T09:32:07.965Z,5.37
2023-05-14T09:37:09.880Z,5.50
2023-05-14T09:42:12.940Z,5.07
2023-05-14T09:47:15.070Z,7.70
2023-05-14T09:52:18.534Z,6.87
2023-05-14T09:57:21.682Z,6.33
2023-05-14T10:02:25.347Z,5.50
2023-05-14T10:07:29.857Z,5.23
2023-05-14T10:12:34.633Z,7.50
2023-05-14T10:17:37.893Z,5.00
2023-05-14T10:22:39.580Z,5.20
2023-05-14T10:27:42.792Z,4.70
2023-05-14T10:32:44.594Z,3.87
2023-05-14T10:37:46.636Z,9.63
2023-05-14T10:42:49.604Z,7.20
2023-05-14T10:47:51.301Z,6.97
2023-05-14T10:52:53.018Z,9.40
2023-05-14T10:57:58.933Z,9.93
2023-05-14T11:03:00.602Z,10.70
2023-05-14T11:08:04.454Z,9.07
2023-05-14T11:13:07.449Z,5.60
2023-05-14T11:18:09.273Z,3.70
2023-05-14T11:23:11.321Z,4.13
2023-05-14T11:28:15.892Z,4.30
2023-05-14T11:33:17.912Z,3.50
2023-05-14T11:38:20.583Z,4.20
2023-05-14T11:43:24.208Z,4.13
2023-05-14T11:48:26.303Z,13.40
2023-05-14T11:53:30.526Z,9.70
2023-05-14T11:58:33.697Z,6.10
2023-05-14T12:03:35.588Z,5.10
2023-05-14T12:08:37.604Z,4.30
2023-05-14T12:13:40.647Z,4.93
2023-05-14T12:18:42.805Z,5.03
2023-05-14T12:23:44.512Z,3.47
2023-05-14T12:28:47.656Z,3.47
2023-05-14T12:33:49.292Z,4.23
2023-05-14T12:38:53.617Z,3.70
2023-05-14T12:43:56.802Z,4.33
2023-05-14T12:48:58.713Z,3.60
2023-05-14T12:54:00.434Z,3.50
2023-05-14T12:59:03.591Z,3.70
2023-05-14T13:04:05.562Z,4.30
2023-05-14T13:09:07.281Z,4.03
2023-05-14T13:14:10.194Z,6.30
2023-05-14T13:19:12.120Z,3.80
2023-05-14T13:24:14.120Z,3.10
2023-05-14T13:29:17.437Z,2.40
2023-05-14T13:34:19.199Z,3.00
2023-05-14T13:39:20.816Z,3.10
2023-05-14T13:44:23.835Z,5.17
2023-05-14T13:49:25.631Z,7.50
2023-05-14T13:54:27.329Z,2.83
2023-05-14T13:59:30.376Z,4.40
2023-05-14T14:04:32.040Z,3.13
2023-05-14T14:09:33.743Z,3.13
2023-05-14T14:14:36.795Z,4.00
2023-05-14T14:19:38.468Z,3.40
2023-05-14T14:24:40.134Z,3.13
2023-05-14T14:29:43.104Z,5.73
2023-05-14T14:34:44.867Z,4.00
2023-05-14T14:39:46.644Z,3.80
2023-05-14T14:44:49.765Z,4.43
2023-05-14T14:49:51.505Z,2.90
2023-05-14T14:54:53.742Z,2.60
2023-05-14T14:59:56.767Z,3.30
2023-05-14T15:04:58.417Z,2.80
2023-05-14T15:10:00.198Z,2.80
2023-05-14T15:15:03.654Z,3.03
2023-05-14T15:20:06.687Z,4.40
2023-05-14T15:25:08.782Z,3.30
2023-05-14T15:30:13.367Z,3.17
2023-05-14T15:35:15.170Z,2.80
2023-05-14T15:40:18.803Z,3.63
2023-05-14T15:45:22.144Z,2.80
2023-05-14T15:50:24.012Z,2.63
2023-05-14T15:55:25.897Z,3.07
2023-05-14T16:00:29.056Z,2.30
2023-05-14T16:05:30.984Z,2.53
2023-05-14T16:10:32.914Z,5.13
2023-05-14T16:15:35.978Z,2.13
2023-05-14T16:20:37.699Z,5.40
2023-05-14T16:25:39.371Z,3.07
2023-05-14T16:30:42.376Z,3.30
2023-05-14T16:35:44.427Z,2.70
2023-05-14T16:40:48.649Z,3.30
2023-05-14T16:45:54.161Z,5.63
2023-05-14T16:50:55.996Z,2.20
2023-05-14T16:56:01.138Z,2.77
2023-05-14T17:01:04.951Z,2.83
2023-05-14T17:06:11.834Z,5.30
2023-05-14T17:11:13.655Z,3.10
2023-05-14T17:16:16.898Z,4.43
2023-05-14T17:21:18.747Z,7.60
2023-05-14T17:26:23.544Z,6.47
2023-05-14T17:31:29.240Z,4.97
2023-05-14T17:36:33.365Z,6.00
2023-05-14T17:41:35.124Z,6.00
2023-05-14T17:46:40.317Z,4.63
2023-05-14T17:51:42.225Z,2.47
2023-05-14T17:56:43.908Z,2.50
2023-05-14T18:01:46.986Z,6.67
2023-05-14T18:06:48.715Z,3.20
2023-05-14T18:11:50.493Z,3.77
2023-05-14T18:16:53.759Z,6.93
2023-05-14T18:21:55.668Z,2.80
2023-05-14T18:26:57.687Z,4.63
2023-05-14T18:32:00.993Z,3.43
2023-05-14T18:37:02.947Z,3.07
2023-05-14T18:42:05.042Z,3.73
2023-05-14T18:47:08.771Z,5.07
2023-05-14T18:52:10.650Z,3.50
2023-05-14T18:57:12.531Z,3.97
2023-05-14T19:02:15.722Z,9.87
2023-05-14T19:07:18.554Z,3.43
2023-05-14T19:12:20.613Z,5.90
2023-05-14T19:17:24.042Z,4.47
2023-05-14T19:22:27.216Z,2.97
2023-05-14T19:27:29.299Z,4.43
2023-05-14T19:32:32.627Z,3.53
2023-05-14T19:37:34.718Z,5.50
2023-05-14T19:42:36.804Z,3.60
2023-05-14T19:47:40.087Z,3.73
2023-05-14T19:52:42.425Z,4.97
2023-05-14T19:57:44.349Z,3.50
2023-05-14T20:02:48.173Z,4.40
2023-05-14T20:07:50.386Z,6.00
2023-05-14T20:12:52.410Z,4.97
2023-05-14T20:17:56.309Z,4.37
2023-05-14T20:22:58.224Z,11.10
2023-05-14T20:28:00.463Z,3.87
2023-05-14T20:33:03.929Z,10.83
2023-05-14T20:38:05.907Z,10.73
2023-05-14T20:43:07.813Z,3.50
2023-05-14T20:48:10.988Z,5.00
2023-05-14T20:53:14.003Z,14.10
2023-05-14T20:58:15.775Z,3.87
2023-05-14T21:03:18.985Z,4.17
2023-05-14T21:08:20.708Z,5.53
2023-05-14T21:13:22.328Z,12.80
2023-05-14T21:18:25.378Z,7.17
2023-05-14T21:23:27.079Z,5.00
2023-05-14T21:28:28.723Z,5.40
2023-05-14T21:33:31.689Z,4.30
2023-05-14T21:38:33.725Z,4.00
2023-05-14T21:43:38.510Z,4.90
2023-05-14T21:48:41.602Z,4.40
2023-05-14T21:53:43.418Z,5.57
2023-05-14T21:58:45.016Z,5.67
2023-05-14T22:03:48.060Z,5.23
2023-05-14T22:08:49.682Z,5.80
2023-05-14T22:13:51.330Z,5.47
2023-05-14T22:18:54.393Z,5.07
2023-05-14T22:23:56.024Z,6.40
2023-05-14T22:28:57.691Z,4.50
2023-05-14T22:34:00.660Z,6.77
2023-05-14T22:39:02.260Z,5.30
2023-05-14T22:44:03.926Z,6.50
2023-05-14T22:49:06.862Z,8.50
2023-05-14T22:54:08.722Z,6.23
2023-05-14T22:59:10.339Z,5.33
2023-05-14T23:04:13.385Z,4.60
2023-05-14T23:09:14.990Z,6.93
2023-05-14T23:14:16.617Z,4.73
2023-05-14T23:19:20.931Z,4.80
2023-05-14T23:24:22.568Z,8.03
2023-05-14T23:29:24.208Z,5.70
2023-05-14T23:34:27.145Z,5.63
2023-05-14T23:39:28.782Z,6.13
2023-05-14T23:44:30.390Z,4.47
2023-05-14T23:49:33.357Z,8.87
2023-05-14T23:54:34.996Z,10.73
2023-05-14T23:59:36.778Z,5.23
